createdAt,value
2022-08-24T00:00:42.792Z,1016.4
2022-08-24T00:01:58.989Z,1016.5
2022-08-24T00:03:15.169Z,1016.4
2022-08-24T00:04:31.133Z,1016.5
2022-08-24T00:05:47.539Z,1016.5
2022-08-24T00:07:03.743Z,1016.5
2022-08-24T00:08:19.929Z,1016.6
2022-08-24T00:09:36.107Z,1016.5
2022-08-24T00:10:52.308Z,1016.5
2022-08-24T00:12:08.273Z,1016.5
2022-08-24T00:13:24.687Z,1016.4
2022-08-24T00:14:40.879Z,1016.4
2022-08-24T00:15:56.838Z,1016.5
2022-08-24T00:17:12.269Z,1016.4
2022-08-24T00:18:28.467Z,1016.4
2022-08-24T00:19:44.651Z,1016.4
2022-08-24T00:21:00.843Z,1016.5
2022-08-24T00:22:17.023Z,1016.4
2022-08-24T00:23:33.216Z,1016.4
2022-08-24T00:24:49.183Z,1016.5
2022-08-24T00:26:05.372Z,1016.5
2022-08-24T00:27:21.773Z,1016.5
2022-08-24T00:28:37.972Z,1016.5
2022-08-24T00:29:53.930Z,1016.6
2022-08-24T00:31:10.340Z,1016.6
2022-08-24T00:32:26.537Z,1016.6
2022-08-24T00:33:41.741Z,1016.6
2022-08-24T00:34:57.694Z,1016.5
2022-08-24T00:36:13.896Z,1016.6
2022-08-24T00:37:30.080Z,1016.5
2022-08-24T00:38:46.277Z,1016.5
2022-08-24T00:40:02.688Z,1016.5
2022-08-24T00:41:18.637Z,1016.5
2022-08-24T00:42:34.833Z,1016.5
2022-08-24T00:43:51.254Z,1016.6
2022-08-24T00:45:07.207Z,1016.5
2022-08-24T00:46:23.633Z,1016.6
2022-08-24T00:47:39.589Z,1016.5
2022-08-24T00:48:56.005Z,1016.5
2022-08-24T00:50:10.991Z,1016.5
2022-08-24T00:51:27.172Z,1016.5
2022-08-24T00:52:43.607Z,1016.5
2022-08-24T00:53:59.793Z,1016.5
2022-08-24T00:55:15.975Z,1016.5
2022-08-24T00:56:32.165Z,1016.5
2022-08-24T00:57:48.118Z,1016.5
2022-08-24T00:59:04.532Z,1016.5
2022-08-24T01:00:20.724Z,1016.5
2022-08-24T01:01:36.910Z,1016.5
2022-08-24T01:02:53.117Z,1016.6
2022-08-24T01:04:09.057Z,1016.6
2022-08-24T01:05:25.253Z,1016.5
2022-08-24T01:06:40.700Z,1016.6
2022-08-24T01:07:56.656Z,1016.6
2022-08-24T01:09:13.072Z,1016.6
2022-08-24T01:10:29.030Z,1016.6
2022-08-24T01:11:45.453Z,1016.6
2022-08-24T01:13:01.392Z,1016.6
2022-08-24T01:14:17.824Z,1016.6
2022-08-24T01:15:33.784Z,1016.6
2022-08-24T01:16:49.967Z,1016.7
2022-08-24T01:18:06.398Z,1016.6
2022-08-24T01:19:22.346Z,1016.5
2022-08-24T01:20:38.546Z,1016.6
2022-08-24T01:21:54.973Z,1016.5
2022-08-24T01:23:09.921Z,1016.6
2022-08-24T01:24:26.360Z,1016.6
2022-08-24T01:25:42.551Z,1016.6
2022-08-24T01:26:58.501Z,1016.6
2022-08-24T01:28:14.685Z,1016.6
2022-08-24T01:29:30.880Z,1016.6
2022-08-24T01:30:47.057Z,1016.6
2022-08-24T01:32:03.484Z,1016.6
2022-08-24T01:33:19.434Z,1016.6
2022-08-24T01:34:35.881Z,1016.6
2022-08-24T01:35:51.828Z,1016.6
2022-08-24T01:37:08.258Z,1016.6
2022-08-24T01:38:24.205Z,1016.6
2022-08-24T01:39:39.647Z,1016.6
2022-08-24T01:40:55.834Z,1016.6
2022-08-24T01:42:12.021Z,1016.6
2022-08-24T01:43:27.977Z,1016.7
2022-08-24T01:44:44.406Z,1016.6
2022-08-24T01:46:00.341Z,1016.6
2022-08-24T01:47:16.773Z,1016.6
2022-08-24T01:48:32.959Z,1016.6
2022-08-24T01:49:49.157Z,1016.6
2022-08-24T01:51:05.101Z,1016.7
2022-08-24T01:52:21.528Z,1016.6
2022-08-24T01:53:37.474Z,1016.6
2022-08-24T01:54:53.670Z,1016.7
2022-08-24T01:56:09.127Z,1016.7
2022-08-24T01:57:25.303Z,1016.6
2022-08-24T01:58:41.243Z,1016.6
2022-08-24T01:59:57.678Z,1016.7
2022-08-24T02:01:13.882Z,1016.6
2022-08-24T02:02:29.821Z,1016.7
2022-08-24T02:03:46.265Z,1016.7
2022-08-24T02:05:02.451Z,1016.7
2022-08-24T02:06:18.378Z,1016.7
2022-08-24T02:07:34.578Z,1016.7
2022-08-24T02:08:50.774Z,1016.8
2022-08-24T02:10:07.193Z,1016.8
2022-08-24T02:11:23.383Z,1016.7
2022-08-24T02:12:38.587Z,1016.7
2022-08-24T02:13:54.782Z,1016.8
2022-08-24T02:15:10.723Z,1016.8
2022-08-24T02:16:26.913Z,1016.8
2022-08-24T02:17:43.356Z,1016.8
2022-08-24T02:18:59.542Z,1016.8
2022-08-24T02:20:14.502Z,1016.8
2022-08-24T02:21:30.691Z,1016.7
2022-08-24T02:22:47.139Z,1016.7
2022-08-24T02:24:03.065Z,1016.7
2022-08-24T02:25:19.500Z,1016.7
2022-08-24T02:26:35.701Z,1016.7
2022-08-24T02:27:51.880Z,1016.7
2022-08-24T02:29:07.827Z,1016.7
2022-08-24T02:30:24.264Z,1016.7
2022-08-24T02:31:40.211Z,1016.8
2022-08-24T02:32:56.648Z,1016.8
2022-08-24T02:34:12.842Z,1016.7
2022-08-24T02:35:29.030Z,1016.8
2022-08-24T02:36:43.965Z,1016.7
2022-08-24T02:38:00.412Z,1016.7
2022-08-24T02:39:16.612Z,1016.7
2022-08-24T02:40:32.799Z,1016.7
2022-08-24T02:41:48.727Z,1016.7
2022-08-24T02:43:05.179Z,1016.7
2022-08-24T02:44:21.101Z,1016.7
2022-08-24T02:45:37.284Z,1016.6
2022-08-24T02:46:53.492Z,1016.7
2022-08-24T02:48:09.938Z,1016.7
2022-08-24T02:49:26.122Z,1016.7
2022-08-24T02:50:42.304Z,1016.7
2022-08-24T02:51:58.498Z,1016.6
2022-08-24T02:53:13.693Z,1016.7
2022-08-24T02:54:29.634Z,1016.6
2022-08-24T02:55:46.078Z,1016.6
2022-08-24T02:57:02.271Z,1016.6
2022-08-24T02:58:18.193Z,1016.6
2022-08-24T02:59:34.399Z,1016.6
2022-08-24T03:00:50.584Z,1016.6
2022-08-24T03:02:06.758Z,1016.7
2022-08-24T03:03:23.224Z,1016.7
2022-08-24T03:04:39.409Z,1016.7
2022-08-24T03:05:55.587Z,1016.7
2022-08-24T03:07:11.523Z,1016.7
2022-08-24T03:08:27.964Z,1016.6
2022-08-24T03:09:42.923Z,1016.6
2022-08-24T03:10:59.367Z,1016.6
2022-08-24T03:12:15.558Z,1016.6
2022-08-24T03:13:31.735Z,1016.6
2022-08-24T03:14:47.938Z,1016.6
2022-08-24T03:16:04.131Z,1016.7
2022-08-24T03:17:20.307Z,1016.6
2022-08-24T03:18:36.503Z,1016.6
2022-08-24T03:19:52.687Z,1016.6
2022-08-24T03:21:08.880Z,1016.6
2022-08-24T03:22:24.812Z,1016.6
2022-08-24T03:23:41.261Z,1016.6
2022-08-24T03:24:57.178Z,1016.6
2022-08-24T03:26:12.647Z,1016.6
2022-08-24T03:27:28.583Z,1016.6
2022-08-24T03:28:45.037Z,1016.6
2022-08-24T03:30:01.220Z,1016.6
2022-08-24T03:31:17.418Z,1016.6
2022-08-24T03:32:33.332Z,1016.6
2022-08-24T03:33:49.779Z,1016.6
2022-08-24T03:35:05.979Z,1016.6
2022-08-24T03:36:21.894Z,1016.6
2022-08-24T03:37:38.077Z,1016.6
2022-08-24T03:38:54.263Z,1016.6
2022-08-24T03:40:10.726Z,1016.6
2022-08-24T03:41:26.925Z,1016.6
2022-08-24T03:42:42.131Z,1016.6
2022-08-24T03:43:58.317Z,1016.7
2022-08-24T03:45:14.242Z,1016.7
2022-08-24T03:46:30.694Z,1016.6
2022-08-24T03:47:46.607Z,1016.7
2022-08-24T03:49:02.806Z,1016.7
2022-08-24T03:50:19.254Z,1016.7
2022-08-24T03:51:35.450Z,1016.7
2022-08-24T03:52:51.364Z,1016.7
2022-08-24T03:54:07.832Z,1016.7
2022-08-24T03:55:24.021Z,1016.7
2022-08-24T03:56:40.198Z,1016.7
2022-08-24T03:57:56.125Z,1016.7
2022-08-24T03:59:11.608Z,1016.6
2022-08-24T04:00:27.782Z,1016.7
2022-08-24T04:01:43.982Z,1016.7
2022-08-24T04:03:00.176Z,1016.7
2022-08-24T04:04:16.367Z,1016.7
2022-08-24T04:05:32.539Z,1016.7
2022-08-24T04:06:48.735Z,1016.7
2022-08-24T04:08:04.658Z,1016.8
2022-08-24T04:09:21.114Z,1016.8
2022-08-24T04:10:37.310Z,1016.8
2022-08-24T04:11:53.487Z,1016.8
2022-08-24T04:13:09.670Z,1016.9
2022-08-24T04:14:25.871Z,1016.9
2022-08-24T04:15:41.069Z,1016.9
2022-08-24T04:16:56.981Z,1016.9
2022-08-24T04:18:13.459Z,1017
2022-08-24T04:19:29.639Z,1016.9
2022-08-24T04:20:45.549Z,1016.9
2022-08-24T04:22:01.746Z,1016.9
2022-08-24T04:23:17.927Z,1016.9
2022-08-24T04:24:34.400Z,1016.9
2022-08-24T04:25:50.588Z,1016.9
2022-08-24T04:27:06.500Z,1016.9
2022-08-24T04:28:22.959Z,1017
2022-08-24T04:29:39.154Z,1017
2022-08-24T04:30:55.060Z,1017
2022-08-24T04:32:10.554Z,1017
2022-08-24T04:33:26.736Z,1017
2022-08-24T04:34:42.656Z,1017
2022-08-24T04:35:59.113Z,1017
2022-08-24T04:37:15.303Z,1017
2022-08-24T04:38:31.486Z,1017
2022-08-24T04:39:47.675Z,1017
2022-08-24T04:41:03.598Z,1017
2022-08-24T04:42:20.064Z,1017
2022-08-24T04:43:36.254Z,1017
2022-08-24T04:44:52.444Z,1017
2022-08-24T04:46:08.342Z,1017
2022-08-24T04:47:24.822Z,1017
2022-08-24T04:48:40.030Z,1017
2022-08-24T04:49:56.219Z,1017
2022-08-24T04:51:12.392Z,1017
2022-08-24T04:52:28.298Z,1017
2022-08-24T04:53:44.785Z,1017.1
2022-08-24T04:55:00.973Z,1017.1
2022-08-24T04:56:16.866Z,1017.1
2022-08-24T04:57:33.354Z,1017.1
2022-08-24T04:58:49.542Z,1017.1
2022-08-24T05:00:05.721Z,1017.1
2022-08-24T05:01:21.632Z,1017.1
2022-08-24T05:02:37.819Z,1017.1
2022-08-24T05:03:54.293Z,1017
2022-08-24T05:05:09.221Z,1017.1
2022-08-24T05:06:25.409Z,1017.1
2022-08-24T05:07:41.882Z,1017.2
2022-08-24T05:08:58.071Z,1017.1
2022-08-24T05:10:13.958Z,1017.1
2022-08-24T05:11:30.160Z,1017.2
2022-08-24T05:12:46.630Z,1017.2
2022-08-24T05:14:02.813Z,1017.2
2022-08-24T05:15:19.013Z,1017.2
2022-08-24T05:16:35.194Z,1017.2
2022-08-24T05:17:51.107Z,1017.3
2022-08-24T05:19:07.586Z,1017.2
2022-08-24T05:20:23.771Z,1017.2
2022-08-24T05:21:38.965Z,1017.2
2022-08-24T05:22:55.165Z,1017.3
2022-08-24T05:24:11.068Z,1017.3
2022-08-24T05:25:27.253Z,1017.3
2022-08-24T05:26:43.726Z,1017.3
2022-08-24T05:27:59.924Z,1017.3
2022-08-24T05:29:16.097Z,1017.3
2022-08-24T05:30:31.996Z,1017.3
2022-08-24T05:31:48.486Z,1017.3
2022-08-24T05:33:04.673Z,1017.3
2022-08-24T05:34:20.853Z,1017.3
2022-08-24T05:35:36.767Z,1017.3
2022-08-24T05:36:53.236Z,1017.2
2022-08-24T05:38:08.448Z,1017.3
2022-08-24T05:39:24.336Z,1017.3
2022-08-24T05:40:40.822Z,1017.2
2022-08-24T05:41:56.724Z,1017.3
2022-08-24T05:43:13.198Z,1017.3
2022-08-24T05:44:29.384Z,1017.3
2022-08-24T05:45:45.572Z,1017.3
2022-08-24T05:47:01.777Z,1017.3
2022-08-24T05:48:17.965Z,1017.4
2022-08-24T05:49:33.850Z,1017.4
2022-08-24T05:50:50.343Z,1017.4
2022-08-24T05:52:06.516Z,1017.4
2022-08-24T05:53:22.712Z,1017.4
2022-08-24T05:54:37.906Z,1017.4
2022-08-24T05:55:54.091Z,1017.4
2022-08-24T05:57:10.306Z,1017.4
2022-08-24T05:58:26.491Z,1017.4
2022-08-24T05:59:42.681Z,1017.5
2022-08-24T06:00:58.870Z,1017.4
2022-08-24T06:02:15.053Z,1017.5
2022-08-24T06:03:31.242Z,1017.5
2022-08-24T06:04:47.411Z,1017.5
2022-08-24T06:06:03.632Z,1017.5
2022-08-24T06:07:19.807Z,1017.5
2022-08-24T06:08:36.010Z,1017.5
2022-08-24T06:09:52.198Z,1017.5
2022-08-24T06:11:07.389Z,1017.5
2022-08-24T06:12:23.583Z,1017.4
2022-08-24T06:13:39.779Z,1017.5
2022-08-24T06:14:55.953Z,1017.5
2022-08-24T06:16:12.149Z,1017.5
2022-08-24T06:17:28.310Z,1017.5
2022-08-24T06:18:44.523Z,1017.5
2022-08-24T06:20:00.710Z,1017.5
2022-08-24T06:21:16.902Z,1017.5
2022-08-24T06:22:33.094Z,1017.5
2022-08-24T06:23:49.275Z,1017.5
2022-08-24T06:25:05.453Z,1017.5
2022-08-24T06:26:21.670Z,1017.5
2022-08-24T06:27:36.861Z,1017.5
2022-08-24T06:28:53.066Z,1017.6
2022-08-24T06:30:09.248Z,1017.5
2022-08-24T06:31:25.431Z,1017.6
2022-08-24T06:32:41.626Z,1017.6
2022-08-24T06:33:57.788Z,1017.6
2022-08-24T06:35:13.016Z,1017.6
2022-08-24T06:36:29.215Z,1017.7
2022-08-24T06:37:45.408Z,1017.6
2022-08-24T06:39:01.592Z,1017.6
2022-08-24T06:40:17.750Z,1017.6
2022-08-24T06:41:33.930Z,1017.6
2022-08-24T06:42:50.167Z,1017.6
2022-08-24T06:44:06.348Z,1017.6
2022-08-24T06:45:22.542Z,1017.6
2022-08-24T06:46:38.729Z,1017.6
2022-08-24T06:47:54.913Z,1017.7
2022-08-24T06:49:11.110Z,1017.7
2022-08-24T06:50:27.306Z,1017.7
2022-08-24T06:51:42.493Z,1017.7
2022-08-24T06:52:58.690Z,1017.7
2022-08-24T06:54:14.884Z,1017.7
2022-08-24T06:55:31.073Z,1017.7
2022-08-24T06:56:47.258Z,1017.7
2022-08-24T06:58:03.401Z,1017.7
2022-08-24T06:59:19.595Z,1017.7
2022-08-24T07:00:35.833Z,1017.7
2022-08-24T07:01:52.004Z,1017.7
2022-08-24T07:03:08.161Z,1017.7
2022-08-24T07:04:24.382Z,1017.7
2022-08-24T07:05:40.582Z,1017.7
2022-08-24T07:06:56.725Z,1017.7
2022-08-24T07:08:11.970Z,1017.8
2022-08-24T07:09:28.160Z,1017.7
2022-08-24T07:10:44.347Z,1017.8
2022-08-24T07:12:00.503Z,1017.8
2022-08-24T07:13:16.737Z,1017.8
2022-08-24T07:14:32.911Z,1017.7
2022-08-24T07:15:49.103Z,1017.7
2022-08-24T07:17:05.293Z,1017.7
2022-08-24T07:18:21.439Z,1017.7
2022-08-24T07:19:37.632Z,1017.7
2022-08-24T07:20:53.861Z,1017.7
2022-08-24T07:22:10.049Z,1017.7
2022-08-24T07:23:26.252Z,1017.7
2022-08-24T07:24:41.458Z,1017.8
2022-08-24T07:25:57.590Z,1017.8
2022-08-24T07:27:13.836Z,1017.9
2022-08-24T07:28:29.970Z,1017.9
2022-08-24T07:29:46.212Z,1017.9
2022-08-24T07:31:02.396Z,1017.8
2022-08-24T07:32:18.575Z,1017.9
2022-08-24T07:33:34.724Z,1017.8
2022-08-24T07:34:50.957Z,1017.8
2022-08-24T07:36:07.158Z,1017.8
2022-08-24T07:37:23.326Z,1017.8
2022-08-24T07:38:39.519Z,1017.8
2022-08-24T07:39:55.713Z,1017.8
2022-08-24T07:41:10.000Z,1017.8
2022-08-24T07:42:27.099Z,1017.8
2022-08-24T07:43:43.248Z,1017.8
2022-08-24T07:44:59.480Z,1017.8
2022-08-24T07:46:15.670Z,1017.8
2022-08-24T07:47:31.796Z,1017.8
2022-08-24T07:48:48.029Z,1017.9
2022-08-24T07:50:04.184Z,1017.9
2022-08-24T07:51:20.414Z,1017.8
2022-08-24T07:52:36.594Z,1017.9
2022-08-24T07:53:52.779Z,1017.8
2022-08-24T07:55:08.974Z,1017.9
2022-08-24T07:56:25.122Z,1017.9
2022-08-24T07:57:40.370Z,1017.9
2022-08-24T07:58:56.548Z,1017.9
2022-08-24T08:00:12.744Z,1018
2022-08-24T08:01:28.920Z,1017.9
2022-08-24T08:02:45.065Z,1018
2022-08-24T08:04:01.244Z,1018
2022-08-24T08:05:17.482Z,1018
2022-08-24T08:06:33.684Z,1017.9
2022-08-24T08:07:49.860Z,1017.9
2022-08-24T08:09:06.047Z,1017.9
2022-08-24T08:10:22.195Z,1018
2022-08-24T08:11:38.383Z,1018
2022-08-24T08:12:54.620Z,1018
2022-08-24T08:14:09.814Z,1018
2022-08-24T08:15:25.997Z,1017.9
2022-08-24T08:16:42.190Z,1018
2022-08-24T08:17:58.386Z,1018
2022-08-24T08:19:14.518Z,1018
2022-08-24T08:20:30.752Z,1018
2022-08-24T08:21:46.939Z,1018
2022-08-24T08:23:03.137Z,1018
2022-08-24T08:24:19.314Z,1018
2022-08-24T08:25:35.498Z,1018
2022-08-24T08:26:51.683Z,1018
2022-08-24T08:28:07.833Z,1018
2022-08-24T08:29:24.059Z,1018.1
2022-08-24T08:30:39.262Z,1018
2022-08-24T08:31:55.461Z,1018
2022-08-24T08:33:11.640Z,1018
2022-08-24T08:34:27.836Z,1018
2022-08-24T08:35:44.009Z,1018
2022-08-24T08:37:00.212Z,1018.1
2022-08-24T08:38:16.399Z,1018
2022-08-24T08:39:32.580Z,1018.1
2022-08-24T08:40:48.717Z,1018.2
2022-08-24T08:42:04.906Z,1018.1
2022-08-24T08:43:21.154Z,1018.1
2022-08-24T08:44:37.326Z,1018.1
2022-08-24T08:45:53.510Z,1018.2
2022-08-24T08:47:08.715Z,1018.2
2022-08-24T08:48:24.911Z,1018.2
2022-08-24T08:49:41.039Z,1018.2
2022-08-24T08:50:57.284Z,1018.2
2022-08-24T08:52:13.406Z,1018.2
2022-08-24T08:53:29.664Z,1018.2
2022-08-24T08:54:45.848Z,1018.2
2022-08-24T08:56:02.024Z,1018.2
2022-08-24T08:57:18.164Z,1018.2
2022-08-24T08:58:34.413Z,1018.2
2022-08-24T08:59:50.597Z,1018.2
2022-08-24T09:01:06.926Z,1018.2
2022-08-24T09:02:23.117Z,1018.2
2022-08-24T09:03:38.318Z,1018.2
2022-08-24T09:04:54.448Z,1018.3
2022-08-24T09:06:10.701Z,1018.3
2022-08-24T09:07:26.890Z,1018.3
2022-08-24T09:08:43.063Z,1018.3
2022-08-24T09:09:59.265Z,1018.3
2022-08-24T09:11:15.448Z,1018.3
2022-08-24T09:12:31.576Z,1018.3
2022-08-24T09:13:47.824Z,1018.2
2022-08-24T09:15:04.005Z,1018.3
2022-08-24T09:16:20.187Z,1018.3
2022-08-24T09:17:36.381Z,1018.2
2022-08-24T09:18:52.568Z,1018.3
2022-08-24T09:20:07.702Z,1018.3
2022-08-24T09:21:23.967Z,1018.3
2022-08-24T09:22:40.141Z,1018.3
2022-08-24T09:23:56.343Z,1018.2
2022-08-24T09:25:12.516Z,1018.2
2022-08-24T09:26:28.710Z,1018.3
2022-08-24T09:27:44.897Z,1018.2
2022-08-24T09:29:01.084Z,1018.2
2022-08-24T09:30:17.271Z,1018.2
2022-08-24T09:31:33.387Z,1018.2
2022-08-24T09:32:49.647Z,1018.2
2022-08-24T09:34:05.839Z,1018.2
2022-08-24T09:35:21.964Z,1018.2
2022-08-24T09:36:37.228Z,1018.2
2022-08-24T09:37:53.356Z,1018.2
2022-08-24T09:39:09.524Z,1018.2
2022-08-24T09:40:25.796Z,1018.2
2022-08-24T09:41:41.968Z,1018.3
2022-08-24T09:42:58.095Z,1018.2
2022-08-24T09:44:14.293Z,1018.3
2022-08-24T09:45:30.544Z,1018.2
2022-08-24T09:46:46.730Z,1018.3
2022-08-24T09:48:02.925Z,1018.2
2022-08-24T09:49:19.104Z,1018.2
2022-08-24T09:50:35.287Z,1018.2
2022-08-24T09:51:51.476Z,1018.2
2022-08-24T09:53:06.611Z,1018.2
2022-08-24T09:54:22.861Z,1018.2
2022-08-24T09:55:39.058Z,1018.2
2022-08-24T09:56:55.177Z,1018.2
2022-08-24T09:58:11.360Z,1018.2
2022-08-24T09:59:27.626Z,1018.2
2022-08-24T10:00:43.736Z,1018.2
2022-08-24T10:01:59.996Z,1018.1
2022-08-24T10:03:16.111Z,1018.2
2022-08-24T10:04:32.372Z,1018.1
2022-08-24T10:05:48.485Z,1018.2
2022-08-24T10:07:04.741Z,1018
2022-08-24T10:08:20.866Z,1018.1
2022-08-24T10:09:36.134Z,1018.1
2022-08-24T10:10:52.313Z,1018.1
2022-08-24T10:12:08.501Z,1018.1
2022-08-24T10:13:24.632Z,1018
2022-08-24T10:14:40.891Z,1018.1
2022-08-24T10:15:57.068Z,1018
2022-08-24T10:17:13.259Z,1018
2022-08-24T10:18:29.445Z,1018
2022-08-24T10:19:45.555Z,1017.9
2022-08-24T10:21:01.822Z,1018
2022-08-24T10:22:17.929Z,1018
2022-08-24T10:23:34.204Z,1018
2022-08-24T10:24:50.385Z,1018
2022-08-24T10:26:05.591Z,1018
2022-08-24T10:27:21.771Z,1018
2022-08-24T10:28:37.894Z,1018
2022-08-24T10:29:54.152Z,1018
2022-08-24T10:31:10.331Z,1017.9
2022-08-24T10:32:26.522Z,1018
2022-08-24T10:33:42.723Z,1018
2022-08-24T10:34:58.814Z,1017.9
2022-08-24T10:36:15.006Z,1017.9
2022-08-24T10:37:31.265Z,1017.9
2022-08-24T10:38:47.379Z,1017.9
2022-08-24T10:40:03.640Z,1017.9
2022-08-24T10:41:19.766Z,1017.9
2022-08-24T10:42:35.042Z,1017.8
2022-08-24T10:43:51.139Z,1017.9
2022-08-24T10:45:07.423Z,1017.8
2022-08-24T10:46:23.594Z,1017.9
2022-08-24T10:47:39.787Z,1017.8
2022-08-24T10:48:55.901Z,1017.9
2022-08-24T10:50:11.096Z,1017.9
2022-08-24T10:51:27.282Z,1017.8
2022-08-24T10:52:43.553Z,1017.9
2022-08-24T10:53:59.741Z,1017.8
2022-08-24T10:55:15.939Z,1017.8
2022-08-24T10:56:32.121Z,1017.8
2022-08-24T10:57:48.303Z,1017.9
2022-08-24T10:59:04.493Z,1017.8
2022-08-24T11:00:20.688Z,1017.8
2022-08-24T11:01:36.866Z,1017.8
2022-08-24T11:02:53.069Z,1017.8
2022-08-24T11:04:09.242Z,1017.8
2022-08-24T11:05:25.434Z,1017.8
2022-08-24T11:06:40.558Z,1017.8
2022-08-24T11:07:56.824Z,1017.8
2022-08-24T11:09:12.922Z,1017.8
2022-08-24T11:10:29.199Z,1017.8
2022-08-24T11:11:45.399Z,1017.8
2022-08-24T11:13:01.489Z,1017.8
2022-08-24T11:14:17.765Z,1017.7
2022-08-24T11:15:33.946Z,1017.7
2022-08-24T11:16:50.046Z,1017.7
2022-08-24T11:18:06.325Z,1017.7
2022-08-24T11:19:22.426Z,1017.7
2022-08-24T11:20:38.703Z,1017.7
2022-08-24T11:21:54.794Z,1017.7
2022-08-24T11:23:10.102Z,1017.7
2022-08-24T11:24:26.187Z,1017.7
2022-08-24T11:25:42.375Z,1017.6
2022-08-24T11:26:58.655Z,1017.7
2022-08-24T11:28:14.850Z,1017.6
2022-08-24T11:29:30.949Z,1017.7
2022-08-24T11:30:47.220Z,1017.7
2022-08-24T11:32:03.318Z,1017.7
2022-08-24T11:33:19.585Z,1017.7
2022-08-24T11:34:35.780Z,1017.6
2022-08-24T11:35:51.977Z,1017.7
2022-08-24T11:37:08.065Z,1017.7
2022-08-24T11:38:24.345Z,1017.7
2022-08-24T11:39:39.553Z,1017.7
2022-08-24T11:40:55.653Z,1017.6
2022-08-24T11:42:11.925Z,1017.7
2022-08-24T11:43:28.112Z,1017.7
2022-08-24T11:44:44.213Z,1017.7
2022-08-24T11:46:00.392Z,1017.6
2022-08-24T11:47:16.583Z,1017.6
2022-08-24T11:48:32.871Z,1017.6
2022-08-24T11:49:49.058Z,1017.5
2022-08-24T11:51:05.146Z,1017.5
2022-08-24T11:52:21.326Z,1017.5
2022-08-24T11:53:37.611Z,1017.5
2022-08-24T11:54:53.795Z,1017.5
2022-08-24T11:56:09.000Z,1017.4
2022-08-24T11:57:25.086Z,1017.4
2022-08-24T11:58:41.370Z,1017.4
2022-08-24T11:59:57.476Z,1017.4
2022-08-24T12:01:13.747Z,1017.4
2022-08-24T12:02:29.849Z,1017.4
2022-08-24T12:03:46.033Z,1017.4
2022-08-24T12:05:02.320Z,1017.4
2022-08-24T12:06:18.498Z,1017.3
2022-08-24T12:07:34.601Z,1017.3
2022-08-24T12:08:50.885Z,1017.4
2022-08-24T12:10:06.969Z,1017.4
2022-08-24T12:11:23.262Z,1017.4
2022-08-24T12:12:38.458Z,1017.4
2022-08-24T12:13:54.668Z,1017.4
2022-08-24T12:15:10.832Z,1017.5
2022-08-24T12:16:26.914Z,1017.5
2022-08-24T12:17:43.103Z,1017.4
2022-08-24T12:18:59.397Z,1017.5
2022-08-24T12:20:15.495Z,1017.4
2022-08-24T12:21:31.770Z,1017.5
2022-08-24T12:22:47.864Z,1017.4
2022-08-24T12:24:04.153Z,1017.3
2022-08-24T12:25:20.341Z,1017.3
2022-08-24T12:26:36.526Z,1017.4
2022-08-24T12:27:52.701Z,1017.3
2022-08-24T12:29:07.822Z,1017.4
2022-08-24T12:30:24.003Z,1017.3
2022-08-24T12:31:40.288Z,1017.4
2022-08-24T12:32:56.466Z,1017.3
2022-08-24T12:34:12.667Z,1017.3
2022-08-24T12:35:28.848Z,1017.3
2022-08-24T12:36:44.926Z,1017.3
2022-08-24T12:38:01.115Z,1017.3
2022-08-24T12:39:17.420Z,1017.2
2022-08-24T12:40:33.602Z,1017.3
2022-08-24T12:41:49.688Z,1017.2
2022-08-24T12:43:05.874Z,1017.2
2022-08-24T12:44:22.174Z,1017.2
2022-08-24T12:45:37.271Z,1017.2
2022-08-24T12:46:53.552Z,1017.1
2022-08-24T12:48:09.741Z,1017.2
2022-08-24T12:49:25.925Z,1017.1
2022-08-24T12:50:42.118Z,1017.1
2022-08-24T12:51:58.313Z,1017.1
2022-08-24T12:53:14.389Z,1017.1
2022-08-24T12:54:30.694Z,1017.1
2022-08-24T12:55:46.868Z,1017.1
2022-08-24T12:57:03.055Z,1017.1
2022-08-24T12:58:19.147Z,1017.2
2022-08-24T12:59:35.442Z,1017.1
2022-08-24T13:00:51.520Z,1017.1
2022-08-24T13:02:06.824Z,1017.1
2022-08-24T13:03:22.916Z,1017.2
2022-08-24T13:04:39.095Z,1017.1
2022-08-24T13:05:55.274Z,1017.1
2022-08-24T13:07:11.472Z,1017.2
2022-08-24T13:08:27.654Z,1017.1
2022-08-24T13:09:43.957Z,1017.2
2022-08-24T13:11:00.035Z,1017.2
2022-08-24T13:12:16.340Z,1017.3
2022-08-24T13:13:32.401Z,1017.3
2022-08-24T13:14:48.710Z,1017.2
2022-08-24T13:16:04.792Z,1017.2
2022-08-24T13:17:21.074Z,1017.2
2022-08-24T13:18:36.287Z,1017.2
2022-08-24T13:19:52.470Z,1017.3
2022-08-24T13:21:08.542Z,1017.2
2022-08-24T13:22:24.860Z,1017.2
2022-08-24T13:23:40.937Z,1017.2
2022-08-24T13:24:57.236Z,1017.2
2022-08-24T13:26:13.310Z,1017.1
2022-08-24T13:27:29.601Z,1017.2
2022-08-24T13:28:45.795Z,1017.2
2022-08-24T13:30:01.976Z,1017.2
2022-08-24T13:31:18.049Z,1017.1
2022-08-24T13:32:34.249Z,1017.2
2022-08-24T13:35:06.728Z,1017.2
2022-08-24T13:36:21.938Z,1017.2
2022-08-24T13:37:38.120Z,1017.2
2022-08-24T13:38:54.194Z,1017.2
2022-08-24T13:40:10.494Z,1017.2
2022-08-24T13:41:26.566Z,1017.2
2022-08-24T13:42:42.876Z,1017.2
2022-08-24T13:43:59.062Z,1017.3
2022-08-24T13:45:15.121Z,1017.2
2022-08-24T13:46:31.319Z,1017.3
2022-08-24T13:47:47.629Z,1017.2
2022-08-24T13:49:03.807Z,1017.3
2022-08-24T13:50:19.998Z,1017.2
2022-08-24T13:51:36.181Z,1017.2
2022-08-24T13:52:51.382Z,1017.2
2022-08-24T13:54:07.464Z,1017.2
2022-08-24T13:55:23.756Z,1017.2
2022-08-24T13:56:39.957Z,1017.1
2022-08-24T13:57:56.018Z,1017.1
2022-08-24T13:59:12.319Z,1017.1
2022-08-24T14:00:28.503Z,1017.1
2022-08-24T14:01:44.587Z,1017.1
2022-08-24T14:03:00.896Z,1017.1
2022-08-24T14:04:17.081Z,1017.2
2022-08-24T14:05:33.270Z,1017.1
2022-08-24T14:06:49.448Z,1017.1
2022-08-24T14:08:05.642Z,1017.1
2022-08-24T14:09:20.710Z,1017.1
2022-08-24T14:10:37.028Z,1017.1
2022-08-24T14:11:53.210Z,1017.1
2022-08-24T14:13:09.411Z,1017.1
2022-08-24T14:14:25.585Z,1017.1
2022-08-24T14:15:41.773Z,1017
2022-08-24T14:16:57.851Z,1017.1
2022-08-24T14:18:14.161Z,1017
2022-08-24T14:19:30.347Z,1016.9
2022-08-24T14:20:46.396Z,1017
2022-08-24T14:22:02.722Z,1017.1
2022-08-24T14:23:18.903Z,1017
2022-08-24T14:24:34.966Z,1017.1
2022-08-24T14:25:50.301Z,1017
2022-08-24T14:27:06.480Z,1017.1
2022-08-24T14:28:22.665Z,1017.1
2022-08-24T14:29:38.851Z,1017.1
2022-08-24T14:30:55.043Z,1017.1
2022-08-24T14:32:11.102Z,1017.2
2022-08-24T14:33:27.412Z,1017.1
2022-08-24T14:34:43.473Z,1017.1
2022-08-24T14:35:59.787Z,1017.1
2022-08-24T14:37:15.978Z,1017.1
2022-08-24T14:38:32.180Z,1017.1
2022-08-24T14:39:48.227Z,1017.1
2022-08-24T14:41:04.549Z,1017.1
2022-08-24T14:42:19.625Z,1017.2
2022-08-24T14:43:35.803Z,1017.1
2022-08-24T14:44:52.135Z,1017.1
2022-08-24T14:46:08.322Z,1017.1
2022-08-24T14:47:24.382Z,1017.1
2022-08-24T14:48:40.551Z,1017.1
2022-08-24T14:49:56.868Z,1017.1
2022-08-24T14:51:13.057Z,1017.1
2022-08-24T14:52:29.241Z,1017.1
2022-08-24T14:53:45.435Z,1017.1
2022-08-24T14:55:01.502Z,1017.1
2022-08-24T14:56:17.810Z,1017.1
2022-08-24T14:57:33.995Z,1017.1
2022-08-24T14:58:49.064Z,1017.1
2022-08-24T15:00:05.394Z,1017
2022-08-24T15:01:21.445Z,1017
2022-08-24T15:02:37.770Z,1017
2022-08-24T15:03:53.818Z,1017
2022-08-24T15:05:09.029Z,1016.9
2022-08-24T15:06:25.343Z,1016.9
2022-08-24T15:07:41.542Z,1016.9
2022-08-24T15:08:57.593Z,1016.9
2022-08-24T15:10:13.771Z,1016.9
2022-08-24T15:11:30.110Z,1016.9
2022-08-24T15:12:46.280Z,1016.8
2022-08-24T15:14:02.351Z,1016.9
2022-08-24T15:15:18.656Z,1016.9
2022-08-24T15:16:34.855Z,1016.9
2022-08-24T15:17:50.914Z,1016.9
2022-08-24T15:19:07.219Z,1016.9
2022-08-24T15:20:23.404Z,1016.9
2022-08-24T15:21:38.622Z,1016.8
2022-08-24T15:22:54.805Z,1016.9
2022-08-24T15:24:10.994Z,1016.8
2022-08-24T15:25:27.049Z,1016.8
2022-08-24T15:26:43.231Z,1016.9
2022-08-24T15:27:59.410Z,1016.8
2022-08-24T15:29:15.747Z,1016.8
2022-08-24T15:30:31.934Z,1016.9
2022-08-24T15:31:48.120Z,1016.8
2022-08-24T15:33:04.173Z,1016.8
2022-08-24T15:34:20.362Z,1016.8
2022-08-24T15:35:36.690Z,1016.8
2022-08-24T15:36:52.722Z,1016.9
2022-08-24T15:38:08.070Z,1016.8
2022-08-24T15:39:24.265Z,1016.8
2022-08-24T15:40:40.301Z,1016.8
2022-08-24T15:41:56.639Z,1016.8
2022-08-24T15:43:12.821Z,1016.8
2022-08-24T15:44:29.000Z,1016.8
2022-08-24T15:45:45.205Z,1016.9
2022-08-24T15:47:01.389Z,1016.9
2022-08-24T15:48:17.433Z,1016.8
2022-08-24T15:49:33.763Z,1016.8
2022-08-24T15:50:49.946Z,1016.8
2022-08-24T15:52:05.990Z,1016.8
2022-08-24T15:53:22.321Z,1016.8
2022-08-24T15:54:37.520Z,1016.8
2022-08-24T15:55:53.573Z,1016.8